sensor_id;sensor_type;location;lat;lon;timestamp;P1;durP1;ratioP1;P2;durP2;ratioP2
50379;SDS011;37474;59.468;18.040;2023-03-31T00:02:04;2.37;;;1.40;;
50379;SDS011;37474;59.468;18.040;2023-03-31T00:04:40;3.03;;;1.50;;
50379;SDS011;37474;59.468;18.040;2023-03-31T00:07:13;2.90;;;1.60;;
50379;SDS011;37474;59.468;18.040;2023-03-31T00:09:44;4.57;;;1.63;;
50379;SDS011;37474;59.468;18.040;2023-03-31T00:12:12;1.67;;;1.27;;
50379;SDS011;37474;59.468;18.040;2023-03-31T00:14:41;2.73;;;1.27;;
50379;SDS011;37474;59.468;18.040;2023-03-31T00:19:43;1.77;;;1.20;;
50379;SDS011;37474;59.468;18.040;2023-03-31T00:22:20;1.60;;;1.50;;
50379;SDS011;37474;59.468;18.040;2023-03-31T00:24:52;1.73;;;1.50;;
50379;SDS011;37474;59.468;18.040;2023-03-31T00:27:24;2.03;;;1.42;;
50379;SDS011;37474;59.468;18.040;2023-03-31T00:29:53;2.13;;;1.60;;
50379;SDS011;37474;59.468;18.040;2023-03-31T00:32:21;2.10;;;1.37;;
50379;SDS011;37474;59.468;18.040;2023-03-31T00:34:53;1.77;;;1.27;;
50379;SDS011;37474;59.468;18.040;2023-03-31T00:39:50;1.90;;;1.33;;
50379;SDS011;37474;59.468;18.040;2023-03-31T00:42:22;1.30;;;1.20;;
50379;SDS011;37474;59.468;18.040;2023-03-31T00:47:57;2.03;;;1.20;;
50379;SDS011;37474;59.468;18.040;2023-03-31T00:50:31;1.77;;;1.30;;
50379;SDS011;37474;59.468;18.040;2023-03-31T00:53:07;1.50;;;1.20;;
50379;SDS011;37474;59.468;18.040;2023-03-31T00:55:39;2.90;;;1.40;;
50379;SDS011;37474;59.468;18.040;2023-03-31T00:58:12;1.90;;;1.47;;
50379;SDS011;37474;59.468;18.040;2023-03-31T01:00:45;1.97;;;1.40;;
50379;SDS011;37474;59.468;18.040;2023-03-31T01:03:18;2.17;;;1.50;;
50379;SDS011;37474;59.468;18.040;2023-03-31T01:05:48;3.27;;;1.57;;
50379;SDS011;37474;59.468;18.040;2023-03-31T01:08:23;2.47;;;1.40;;
50379;SDS011;37474;59.468;18.040;2023-03-31T01:10:54;1.43;;;1.20;;
50379;SDS011;37474;59.468;18.040;2023-03-31T01:13:28;1.83;;;1.17;;
50379;SDS011;37474;59.468;18.040;2023-03-31T01:15:57;2.10;;;1.30;;
50379;SDS011;37474;59.468;18.040;2023-03-31T01:18:27;2.03;;;1.40;;
50379;SDS011;37474;59.468;18.040;2023-03-31T01:27:16;3.23;;;1.40;;
50379;SDS011;37474;59.468;18.040;2023-03-31T01:30:17;2.37;;;1.10;;
50379;SDS011;37474;59.468;18.040;2023-03-31T01:39:49;1.30;;;1.20;;
50379;SDS011;37474;59.468;18.040;2023-03-31T01:42:44;2.47;;;1.40;;
50379;SDS011;37474;59.468;18.040;2023-03-31T01:45:24;3.53;;;1.33;;
50379;SDS011;37474;59.468;18.040;2023-03-31T01:47:58;1.40;;;1.27;;
50379;SDS011;37474;59.468;18.040;2023-03-31T01:50:34;1.67;;;1.40;;
50379;SDS011;37474;59.468;18.040;2023-03-31T01:53:09;1.67;;;1.20;;
50379;SDS011;37474;59.468;18.040;2023-03-31T01:55:50;2.50;;;1.20;;
50379;SDS011;37474;59.468;18.040;2023-03-31T01:58:27;1.40;;;1.30;;
50379;SDS011;37474;59.468;18.040;2023-03-31T02:01:01;1.33;;;1.20;;
50379;SDS011;37474;59.468;18.040;2023-03-31T02:03:36;2.60;;;1.13;;
50379;SDS011;37474;59.468;18.040;2023-03-31T02:06:15;2.47;;;1.20;;
50379;SDS011;37474;59.468;18.040;2023-03-31T02:08:47;1.70;;;1.23;;
50379;SDS011;37474;59.468;18.040;2023-03-31T02:11:22;2.87;;;1.80;;
50379;SDS011;37474;59.468;18.040;2023-03-31T02:13:52;1.57;;;1.20;;
50379;SDS011;37474;59.468;18.040;2023-03-31T02:16:26;1.60;;;1.30;;
50379;SDS011;37474;59.468;18.040;2023-03-31T02:18:58;2.03;;;1.17;;
50379;SDS011;37474;59.468;18.040;2023-03-31T02:21:33;1.73;;;1.30;;
50379;SDS011;37474;59.468;18.040;2023-03-31T02:24:06;1.90;;;1.27;;
50379;SDS011;37474;59.468;18.040;2023-03-31T02:26:43;1.67;;;1.20;;
50379;SDS011;37474;59.468;18.040;2023-03-31T02:29:16;1.27;;;1.17;;
50379;SDS011;37474;59.468;18.040;2023-03-31T02:31:48;2.38;;;1.10;;
50379;SDS011;37474;59.468;18.040;2023-03-31T02:34:22;2.33;;;1.37;;
50379;SDS011;37474;59.468;18.040;2023-03-31T02:36:54;1.60;;;1.20;;
50379;SDS011;37474;59.468;18.040;2023-03-31T02:39:23;1.83;;;1.27;;
50379;SDS011;37474;59.468;18.040;2023-03-31T02:41:59;1.40;;;1.27;;
50379;SDS011;37474;59.468;18.040;2023-03-31T02:44:34;2.37;;;1.10;;
50379;SDS011;37474;59.468;18.040;2023-03-31T02:47:07;1.83;;;1.07;;
50379;SDS011;37474;59.468;18.040;2023-03-31T02:49:38;1.90;;;1.30;;
50379;SDS011;37474;59.468;18.040;2023-03-31T02:52:16;1.53;;;1.20;;
50379;SDS011;37474;59.468;18.040;2023-03-31T02:55:03;1.67;;;1.40;;
50379;SDS011;37474;59.468;18.040;2023-03-31T02:57:48;1.40;;;1.30;;
50379;SDS011;37474;59.468;18.040;2023-03-31T03:00:44;1.30;;;1.20;;
50379;SDS011;37474;59.468;18.040;2023-03-31T03:03:28;1.43;;;1.17;;
50379;SDS011;37474;59.468;18.040;2023-03-31T03:06:04;1.20;;;1.10;;
50379;SDS011;37474;59.468;18.040;2023-03-31T03:09:00;1.67;;;1.27;;
50379;SDS011;37474;59.468;18.040;2023-03-31T03:11:37;6.77;;;1.50;;
50379;SDS011;37474;59.468;18.040;2023-03-31T03:14:21;1.77;;;1.20;;
50379;SDS011;37474;59.468;18.040;2023-03-31T03:16:58;2.50;;;1.17;;
50379;SDS011;37474;59.468;18.040;2023-03-31T03:19:37;2.07;;;1.50;;
50379;SDS011;37474;59.468;18.040;2023-03-31T03:22:08;1.83;;;1.27;;
50379;SDS011;37474;59.468;18.040;2023-03-31T03:24:40;2.38;;;1.38;;
50379;SDS011;37474;59.468;18.040;2023-03-31T03:27:08;1.55;;;1.23;;
50379;SDS011;37474;59.468;18.040;2023-03-31T03:29:37;2.63;;;1.50;;
50379;SDS011;37474;59.468;18.040;2023-03-31T03:32:10;2.30;;;1.50;;
50379;SDS011;37474;59.468;18.040;2023-03-31T03:34:39;2.53;;;1.20;;
50379;SDS011;37474;59.468;18.040;2023-03-31T03:37:07;2.23;;;1.40;;
50379;SDS011;37474;59.468;18.040;2023-03-31T03:39:39;1.85;;;1.60;;
50379;SDS011;37474;59.468;18.040;2023-03-31T03:42:07;1.80;;;1.23;;
50379;SDS011;37474;59.468;18.040;2023-03-31T03:44:34;1.67;;;1.20;;
50379;SDS011;37474;59.468;18.040;2023-03-31T03:47:07;2.35;;;1.58;;
50379;SDS011;37474;59.468;18.040;2023-03-31T03:49:35;2.07;;;1.50;;
50379;SDS011;37474;59.468;18.040;2023-03-31T03:52:03;3.10;;;1.37;;
50379;SDS011;37474;59.468;18.040;2023-03-31T03:54:35;1.23;;;1.13;;
50379;SDS011;37474;59.468;18.040;2023-03-31T03:57:03;2.03;;;1.30;;
50379;SDS011;37474;59.468;18.040;2023-03-31T03:59:31;2.47;;;1.10;;
50379;SDS011;37474;59.468;18.040;2023-03-31T04:02:03;2.78;;;1.42;;
50379;SDS011;37474;59.468;18.040;2023-03-31T04:04:32;2.20;;;1.20;;
50379;SDS011;37474;59.468;18.040;2023-03-31T04:07:00;3.23;;;1.50;;
50379;SDS011;37474;59.468;18.040;2023-03-31T04:09:32;2.72;;;1.30;;
50379;SDS011;37474;59.468;18.040;2023-03-31T04:12:00;3.17;;;1.48;;
50379;SDS011;37474;59.468;18.040;2023-03-31T04:14:28;2.30;;;1.50;;
50379;SDS011;37474;59.468;18.040;2023-03-31T04:16:59;4.20;;;1.60;;
50379;SDS011;37474;59.468;18.040;2023-03-31T04:19:29;1.40;;;1.30;;
50379;SDS011;37474;59.468;18.040;2023-03-31T04:22:00;2.13;;;1.30;;
50379;SDS011;37474;59.468;18.040;2023-03-31T04:24:34;1.80;;;1.30;;
50379;SDS011;37474;59.468;18.040;2023-03-31T04:27:04;3.20;;;1.40;;
50379;SDS011;37474;59.468;18.040;2023-03-31T04:29:33;1.77;;;1.40;;
50379;SDS011;37474;59.468;18.040;2023-03-31T04:32:06;1.63;;;1.20;;
50379;SDS011;37474;59.468;18.040;2023-03-31T04:34:34;1.50;;;1.40;;
50379;SDS011;37474;59.468;18.040;2023-03-31T04:37:03;1.67;;;1.30;;
50379;SDS011;37474;59.468;18.040;2023-03-31T04:39:35;1.47;;;1.30;;
50379;SDS011;37474;59.468;18.040;2023-03-31T04:42:03;1.55;;;1.45;;
50379;SDS011;37474;59.468;18.040;2023-03-31T04:44:31;2.90;;;1.63;;
50379;SDS011;37474;59.468;18.040;2023-03-31T04:47:03;2.22;;;1.50;;
50379;SDS011;37474;59.468;18.040;2023-03-31T04:49:32;3.20;;;1.60;;
50379;SDS011;37474;59.468;18.040;2023-03-31T04:52:03;2.38;;;1.50;;
50379;SDS011;37474;59.468;18.040;2023-03-31T04:54:38;4.33;;;1.50;;
50379;SDS011;37474;59.468;18.040;2023-03-31T04:57:08;1.70;;;1.50;;
50379;SDS011;37474;59.468;18.040;2023-03-31T04:59:35;1.60;;;1.10;;
50379;SDS011;37474;59.468;18.040;2023-03-31T05:02:12;2.63;;;1.50;;
50379;SDS011;37474;59.468;18.040;2023-03-31T05:04:41;1.40;;;1.30;;
50379;SDS011;37474;59.468;18.040;2023-03-31T05:07:10;3.67;;;1.50;;
50379;SDS011;37474;59.468;18.040;2023-03-31T05:09:42;1.67;;;1.53;;
50379;SDS011;37474;59.468;18.040;2023-03-31T05:12:10;2.00;;;1.42;;
50379;SDS011;37474;59.468;18.040;2023-03-31T05:14:37;2.10;;;1.60;;
50379;SDS011;37474;59.468;18.040;2023-03-31T05:17:07;2.95;;;1.42;;
50379;SDS011;37474;59.468;18.040;2023-03-31T05:19:35;1.50;;;1.33;;
50379;SDS011;37474;59.468;18.040;2023-03-31T05:22:03;4.67;;;2.03;;
50379;SDS011;37474;59.468;18.040;2023-03-31T05:24:34;3.75;;;1.30;;
50379;SDS011;37474;59.468;18.040;2023-03-31T05:27:02;2.00;;;1.27;;
50379;SDS011;37474;59.468;18.040;2023-03-31T05:29:30;3.00;;;1.23;;
50379;SDS011;37474;59.468;18.040;2023-03-31T05:32:00;3.67;;;1.50;;
50379;SDS011;37474;59.468;18.040;2023-03-31T05:34:28;1.38;;;1.27;;
50379;SDS011;37474;59.468;18.040;2023-03-31T05:36:56;2.30;;;1.50;;
50379;SDS011;37474;59.468;18.040;2023-03-31T05:39:26;3.30;;;1.40;;
50379;SDS011;37474;59.468;18.040;2023-03-31T05:41:59;3.60;;;1.60;;
50379;SDS011;37474;59.468;18.040;2023-03-31T05:44:29;2.40;;;1.33;;
50379;SDS011;37474;59.468;18.040;2023-03-31T05:46:57;2.27;;;1.70;;
50379;SDS011;37474;59.468;18.040;2023-03-31T05:49:25;3.00;;;1.87;;
50379;SDS011;37474;59.468;18.040;2023-03-31T05:51:54;2.13;;;1.23;;
50379;SDS011;37474;59.468;18.040;2023-03-31T05:54:22;3.40;;;1.03;;
50379;SDS011;37474;59.468;18.040;2023-03-31T05:56:52;1.40;;;1.20;;
50379;SDS011;37474;59.468;18.040;2023-03-31T05:59:21;3.40;;;1.63;;
50379;SDS011;37474;59.468;18.040;2023-03-31T06:01:49;2.70;;;1.40;;
50379;SDS011;37474;59.468;18.040;2023-03-31T06:04:19;2.83;;;1.27;;
50379;SDS011;37474;59.468;18.040;2023-03-31T06:06:47;5.00;;;1.30;;
50379;SDS011;37474;59.468;18.040;2023-03-31T06:09:16;1.97;;;1.20;;
50379;SDS011;37474;59.468;18.040;2023-03-31T06:11:46;1.80;;;1.10;;
50379;SDS011;37474;59.468;18.040;2023-03-31T06:14:15;3.23;;;1.33;;
50379;SDS011;37474;59.468;18.040;2023-03-31T06:16:45;4.67;;;1.60;;
50379;SDS011;37474;59.468;18.040;2023-03-31T06:19:17;1.33;;;1.20;;
50379;SDS011;37474;59.468;18.040;2023-03-31T06:21:45;2.10;;;1.15;;
50379;SDS011;37474;59.468;18.040;2023-03-31T06:24:14;3.23;;;1.20;;
50379;SDS011;37474;59.468;18.040;2023-03-31T06:26:41;3.27;;;1.00;;
50379;SDS011;37474;59.468;18.040;2023-03-31T06:29:09;2.70;;;1.40;;
50379;SDS011;37474;59.468;18.040;2023-03-31T06:31:37;2.57;;;1.20;;
50379;SDS011;37474;59.468;18.040;2023-03-31T06:34:06;3.90;;;1.33;;
50379;SDS011;37474;59.468;18.040;2023-03-31T06:36:34;1.67;;;1.10;;
50379;SDS011;37474;59.468;18.040;2023-03-31T06:39:02;1.93;;;1.10;;
50379;SDS011;37474;59.468;18.040;2023-03-31T06:41:30;2.03;;;1.50;;
50379;SDS011;37474;59.468;18.040;2023-03-31T06:43:58;2.60;;;1.40;;
50379;SDS011;37474;59.468;18.040;2023-03-31T06:46:25;2.50;;;1.20;;
50379;SDS011;37474;59.468;18.040;2023-03-31T06:48:53;2.63;;;1.40;;
50379;SDS011;37474;59.468;18.040;2023-03-31T06:51:23;2.57;;;1.43;;
50379;SDS011;37474;59.468;18.040;2023-03-31T06:53:50;2.47;;;1.20;;
50379;SDS011;37474;59.468;18.040;2023-03-31T06:56:18;1.83;;;1.27;;
50379;SDS011;37474;59.468;18.040;2023-03-31T06:58:47;2.57;;;1.50;;
50379;SDS011;37474;59.468;18.040;2023-03-31T07:01:15;3.73;;;1.27;;
50379;SDS011;37474;59.468;18.040;2023-03-31T07:03:42;1.97;;;1.20;;
50379;SDS011;37474;59.468;18.040;2023-03-31T07:06:15;1.27;;;1.10;;
50379;SDS011;37474;59.468;18.040;2023-03-31T07:08:44;2.30;;;1.10;;
50379;SDS011;37474;59.468;18.040;2023-03-31T07:11:11;2.00;;;1.00;;
50379;SDS011;37474;59.468;18.040;2023-03-31T07:13:43;1.75;;;1.20;;
50379;SDS011;37474;59.468;18.040;2023-03-31T07:16:13;1.13;;;1.00;;
50379;SDS011;37474;59.468;18.040;2023-03-31T07:18:41;3.77;;;1.03;;
50379;SDS011;37474;59.468;18.040;2023-03-31T07:21:12;3.15;;;1.17;;
50379;SDS011;37474;59.468;18.040;2023-03-31T07:23:40;1.67;;;0.95;;
50379;SDS011;37474;59.468;18.040;2023-03-31T07:26:09;1.47;;;1.03;;
50379;SDS011;37474;59.468;18.040;2023-03-31T07:28:38;3.15;;;1.15;;
50379;SDS011;37474;59.468;18.040;2023-03-31T07:31:12;3.03;;;1.27;;
50379;SDS011;37474;59.468;18.040;2023-03-31T07:33:41;2.33;;;1.30;;
50379;SDS011;37474;59.468;18.040;2023-03-31T07:36:09;4.90;;;1.33;;
50379;SDS011;37474;59.468;18.040;2023-03-31T07:38:39;4.90;;;1.23;;
50379;SDS011;37474;59.468;18.040;2023-03-31T07:41:10;3.23;;;1.27;;
50379;SDS011;37474;59.468;18.040;2023-03-31T07:43:39;2.07;;;1.30;;
50379;SDS011;37474;59.468;18.040;2023-03-31T07:46:12;2.23;;;1.50;;
50379;SDS011;37474;59.468;18.040;2023-03-31T07:48:46;3.77;;;1.60;;
50379;SDS011;37474;59.468;18.040;2023-03-31T07:51:15;1.60;;;1.10;;
50379;SDS011;37474;59.468;18.040;2023-03-31T07:53:46;1.70;;;1.27;;
50379;SDS011;37474;59.468;18.040;2023-03-31T07:56:19;3.07;;;1.20;;
50379;SDS011;37474;59.468;18.040;2023-03-31T07:58:50;2.33;;;1.30;;
50379;SDS011;37474;59.468;18.040;2023-03-31T08:01:25;2.57;;;1.23;;
50379;SDS011;37474;59.468;18.040;2023-03-31T08:03:54;5.37;;;1.70;;
50379;SDS011;37474;59.468;18.040;2023-03-31T08:06:24;4.38;;;1.90;;
50379;SDS011;37474;59.468;18.040;2023-03-31T08:08:56;2.58;;;1.38;;
50379;SDS011;37474;59.468;18.040;2023-03-31T08:11:26;5.35;;;1.70;;
50379;SDS011;37474;59.468;18.040;2023-03-31T08:13:55;3.03;;;1.40;;
50379;SDS011;37474;59.468;18.040;2023-03-31T08:16:25;3.67;;;1.40;;
50379;SDS011;37474;59.468;18.040;2023-03-31T08:18:55;2.60;;;1.20;;
50379;SDS011;37474;59.468;18.040;2023-03-31T08:21:25;3.05;;;1.30;;
50379;SDS011;37474;59.468;18.040;2023-03-31T08:23:56;3.27;;;1.83;;
50379;SDS011;37474;59.468;18.040;2023-03-31T08:26:26;2.55;;;1.42;;
50379;SDS011;37474;59.468;18.040;2023-03-31T08:28:56;1.87;;;1.03;;
50379;SDS011;37474;59.468;18.040;2023-03-31T08:31:24;2.77;;;1.07;;
50379;SDS011;37474;59.468;18.040;2023-03-31T08:33:54;2.25;;;1.00;;
50379;SDS011;37474;59.468;18.040;2023-03-31T08:36:22;1.70;;;0.90;;
50379;SDS011;37474;59.468;18.040;2023-03-31T08:38:53;1.63;;;1.10;;
50379;SDS011;37474;59.468;18.040;2023-03-31T08:41:31;1.60;;;1.10;;
50379;SDS011;37474;59.468;18.040;2023-03-31T08:44:09;3.00;;;1.20;;
50379;SDS011;37474;59.468;18.040;2023-03-31T08:46:45;4.10;;;1.03;;
50379;SDS011;37474;59.468;18.040;2023-03-31T08:49:15;2.50;;;0.90;;
50379;SDS011;37474;59.468;18.040;2023-03-31T08:51:49;1.97;;;1.00;;
50379;SDS011;37474;59.468;18.040;2023-03-31T08:54:24;2.30;;;0.97;;
50379;SDS011;37474;59.468;18.040;2023-03-31T08:57:03;2.03;;;0.90;;
50379;SDS011;37474;59.468;18.040;2023-03-31T08:59:38;2.40;;;1.03;;
50379;SDS011;37474;59.468;18.040;2023-03-31T09:02:12;1.25;;;0.95;;
50379;SDS011;37474;59.468;18.040;2023-03-31T09:05:00;2.53;;;1.10;;
50379;SDS011;37474;59.468;18.040;2023-03-31T09:07:45;0.80;;;0.80;;
50379;SDS011;37474;59.468;18.040;2023-03-31T09:10:25;1.97;;;0.90;;
50379;SDS011;37474;59.468;18.040;2023-03-31T09:13:13;1.40;;;1.00;;
50379;SDS011;37474;59.468;18.040;2023-03-31T09:15:49;2.00;;;0.97;;
50379;SDS011;37474;59.468;18.040;2023-03-31T09:18:29;1.60;;;1.07;;
50379;SDS011;37474;59.468;18.040;2023-03-31T09:21:01;3.27;;;1.13;;
50379;SDS011;37474;59.468;18.040;2023-03-31T09:23:37;1.70;;;1.00;;
50379;SDS011;37474;59.468;18.040;2023-03-31T09:26:10;1.77;;;0.90;;
50379;SDS011;37474;59.468;18.040;2023-03-31T09:28:54;1.83;;;0.90;;
50379;SDS011;37474;59.468;18.040;2023-03-31T09:31:26;2.23;;;0.97;;
50379;SDS011;37474;59.468;18.040;2023-03-31T09:33:57;4.80;;;0.90;;
50379;SDS011;37474;59.468;18.040;2023-03-31T09:36:29;2.77;;;0.80;;
50379;SDS011;37474;59.468;18.040;2023-03-31T09:38:56;2.03;;;0.97;;
50379;SDS011;37474;59.468;18.040;2023-03-31T09:41:24;1.93;;;1.10;;
50379;SDS011;37474;59.468;18.040;2023-03-31T09:43:53;1.93;;;0.93;;
50379;SDS011;37474;59.468;18.040;2023-03-31T09:46:25;2.90;;;1.00;;
50379;SDS011;37474;59.468;18.040;2023-03-31T09:48:57;1.30;;;1.00;;
50379;SDS011;37474;59.468;18.040;2023-03-31T09:51:29;2.10;;;1.10;;
50379;SDS011;37474;59.468;18.040;2023-03-31T09:54:06;2.93;;;0.90;;
50379;SDS011;37474;59.468;18.040;2023-03-31T09:56:46;6.83;;;0.90;;
50379;SDS011;37474;59.468;18.040;2023-03-31T09:59:22;1.08;;;0.90;;
50379;SDS011;37474;59.468;18.040;2023-03-31T10:01:57;2.73;;;0.90;;
50379;SDS011;37474;59.468;18.040;2023-03-31T10:04:31;0.83;;;0.83;;
50379;SDS011;37474;59.468;18.040;2023-03-31T10:07:02;1.13;;;0.90;;
50379;SDS011;37474;59.468;18.040;2023-03-31T10:12:01;1.67;;;0.90;;
50379;SDS011;37474;59.468;18.040;2023-03-31T10:14:37;1.73;;;1.00;;
50379;SDS011;37474;59.468;18.040;2023-03-31T10:17:12;2.13;;;0.80;;
50379;SDS011;37474;59.468;18.040;2023-03-31T10:19:46;2.57;;;1.00;;
50379;SDS011;37474;59.468;18.040;2023-03-31T10:22:25;1.10;;;1.00;;
50379;SDS011;37474;59.468;18.040;2023-03-31T10:24:54;2.97;;;1.00;;
50379;SDS011;37474;59.468;18.040;2023-03-31T10:27:35;1.03;;;0.80;;
50379;SDS011;37474;59.468;18.040;2023-03-31T10:30:09;4.13;;;1.00;;
50379;SDS011;37474;59.468;18.040;2023-03-31T10:32:45;3.60;;;1.03;;
50379;SDS011;37474;59.468;18.040;2023-03-31T10:35:23;2.17;;;1.10;;
50379;SDS011;37474;59.468;18.040;2023-03-31T10:37:55;2.83;;;0.90;;
50379;SDS011;37474;59.468;18.040;2023-03-31T10:40:33;1.77;;;0.93;;
50379;SDS011;37474;59.468;18.040;2023-03-31T10:43:05;2.20;;;1.20;;
50379;SDS011;37474;59.468;18.040;2023-03-31T10:45:42;3.67;;;1.10;;
50379;SDS011;37474;59.468;18.040;2023-03-31T10:48:17;1.00;;;0.80;;
50379;SDS011;37474;59.468;18.040;2023-03-31T10:50:50;2.27;;;0.90;;
50379;SDS011;37474;59.468;18.040;2023-03-31T10:53:18;3.07;;;0.80;;
50379;SDS011;37474;59.468;18.040;2023-03-31T10:55:53;4.37;;;0.80;;
50379;SDS011;37474;59.468;18.040;2023-03-31T10:58:34;0.80;;;0.80;;
50379;SDS011;37474;59.468;18.040;2023-03-31T11:01:27;2.37;;;0.97;;
50379;SDS011;37474;59.468;18.040;2023-03-31T11:04:09;3.23;;;0.83;;
50379;SDS011;37474;59.468;18.040;2023-03-31T11:06:55;1.87;;;1.00;;
50379;SDS011;37474;59.468;18.040;2023-03-31T11:09:32;1.33;;;0.80;;
50379;SDS011;37474;59.468;18.040;2023-03-31T11:12:13;3.20;;;0.90;;
50379;SDS011;37474;59.468;18.040;2023-03-31T11:14:54;0.83;;;0.70;;
50379;SDS011;37474;59.468;18.040;2023-03-31T11:17:35;1.33;;;0.83;;
50379;SDS011;37474;59.468;18.040;2023-03-31T11:20:17;0.80;;;0.80;;
50379;SDS011;37474;59.468;18.040;2023-03-31T11:22:54;1.33;;;0.90;;
50379;SDS011;37474;59.468;18.040;2023-03-31T11:25:37;2.73;;;0.97;;
50379;SDS011;37474;59.468;18.040;2023-03-31T11:28:18;1.73;;;0.87;;
50379;SDS011;37474;59.468;18.040;2023-03-31T11:30:57;1.50;;;1.00;;
50379;SDS011;37474;59.468;18.040;2023-03-31T11:33:40;2.13;;;1.00;;
50379;SDS011;37474;59.468;18.040;2023-03-31T11:36:23;1.10;;;0.73;;
50379;SDS011;37474;59.468;18.040;2023-03-31T11:39:08;1.80;;;0.77;;
50379;SDS011;37474;59.468;18.040;2023-03-31T11:41:47;0.90;;;0.70;;
50379;SDS011;37474;59.468;18.040;2023-03-31T11:44:20;1.00;;;0.70;;
50379;SDS011;37474;59.468;18.040;2023-03-31T11:46:53;1.23;;;0.80;;
50379;SDS011;37474;59.468;18.040;2023-03-31T11:49:31;3.40;;;0.90;;
50379;SDS011;37474;59.468;18.040;2023-03-31T11:52:06;1.53;;;0.70;;
50379;SDS011;37474;59.468;18.040;2023-03-31T11:54:40;1.50;;;0.90;;
50379;SDS011;37474;59.468;18.040;2023-03-31T11:57:13;1.17;;;0.60;;
50379;SDS011;37474;59.468;18.040;2023-03-31T11:59:46;1.57;;;0.73;;
50379;SDS011;37474;59.468;18.040;2023-03-31T12:02:23;1.20;;;0.60;;
50379;SDS011;37474;59.468;18.040;2023-03-31T12:05:06;1.38;;;0.70;;
50379;SDS011;37474;59.468;18.040;2023-03-31T12:07:38;2.03;;;0.70;;
50379;SDS011;37474;59.468;18.040;2023-03-31T12:10:16;0.83;;;0.70;;
50379;SDS011;37474;59.468;18.040;2023-03-31T12:12:48;1.33;;;0.70;;
50379;SDS011;37474;59.468;18.040;2023-03-31T12:15:22;1.87;;;0.70;;
50379;SDS011;37474;59.468;18.040;2023-03-31T12:17:55;1.27;;;0.70;;
50379;SDS011;37474;59.468;18.040;2023-03-31T12:20:32;1.57;;;0.53;;
50379;SDS011;37474;59.468;18.040;2023-03-31T12:23:09;1.67;;;0.63;;
50379;SDS011;37474;59.468;18.040;2023-03-31T12:25:43;3.23;;;0.80;;
50379;SDS011;37474;59.468;18.040;2023-03-31T12:28:27;0.73;;;0.60;;
50379;SDS011;37474;59.468;18.040;2023-03-31T12:30:58;0.83;;;0.53;;
50379;SDS011;37474;59.468;18.040;2023-03-31T12:33:29;2.20;;;0.70;;
50379;SDS011;37474;59.468;18.040;2023-03-31T12:36:08;1.10;;;0.60;;
50379;SDS011;37474;59.468;18.040;2023-03-31T12:38:55;1.37;;;0.70;;
50379;SDS011;37474;59.468;18.040;2023-03-31T12:41:37;1.80;;;0.70;;
50379;SDS011;37474;59.468;18.040;2023-03-31T12:44:29;0.97;;;0.60;;
50379;SDS011;37474;59.468;18.040;2023-03-31T12:47:09;2.97;;;0.80;;
50379;SDS011;37474;59.468;18.040;2023-03-31T12:50:02;1.30;;;0.63;;
50379;SDS011;37474;59.468;18.040;2023-03-31T12:52:47;1.80;;;0.70;;
50379;SDS011;37474;59.468;18.040;2023-03-31T12:55:35;2.00;;;0.70;;
50379;SDS011;37474;59.468;18.040;2023-03-31T13:01:09;5.53;;;0.80;;
50379;SDS011;37474;59.468;18.040;2023-03-31T13:03:48;1.33;;;0.63;;
50379;SDS011;37474;59.468;18.040;2023-03-31T13:09:42;0.50;;;0.40;;
50379;SDS011;37474;59.468;18.040;2023-03-31T13:12:21;0.73;;;0.60;;
50379;SDS011;37474;59.468;18.040;2023-03-31T13:14:50;2.93;;;0.67;;
50379;SDS011;37474;59.468;18.040;2023-03-31T13:17:22;0.87;;;0.50;;
50379;SDS011;37474;59.468;18.040;2023-03-31T13:19:55;1.23;;;0.60;;
50379;SDS011;37474;59.468;18.040;2023-03-31T13:22:39;1.77;;;0.60;;
50379;SDS011;37474;59.468;18.040;2023-03-31T13:28:08;2.53;;;0.70;;
50379;SDS011;37474;59.468;18.040;2023-03-31T13:30:47;1.27;;;0.70;;
50379;SDS011;37474;59.468;18.040;2023-03-31T13:33:21;1.43;;;0.57;;
50379;SDS011;37474;59.468;18.040;2023-03-31T13:35:57;1.07;;;0.40;;
50379;SDS011;37474;59.468;18.040;2023-03-31T13:38:44;0.97;;;0.70;;
50379;SDS011;37474;59.468;18.040;2023-03-31T13:41:23;0.90;;;0.60;;
50379;SDS011;37474;59.468;18.040;2023-03-31T13:44:10;1.10;;;0.50;;
50379;SDS011;37474;59.468;18.040;2023-03-31T13:47:15;0.90;;;0.50;;
50379;SDS011;37474;59.468;18.040;2023-03-31T13:49:59;0.83;;;0.50;;
50379;SDS011;37474;59.468;18.040;2023-03-31T13:52:43;1.13;;;0.57;;
50379;SDS011;37474;59.468;18.040;2023-03-31T13:55:43;1.10;;;0.40;;
50379;SDS011;37474;59.468;18.040;2023-03-31T13:58:28;0.87;;;0.57;;
50379;SDS011;37474;59.468;18.040;2023-03-31T14:01:11;0.60;;;0.40;;
50379;SDS011;37474;59.468;18.040;2023-03-31T14:03:59;0.80;;;0.40;;
50379;SDS011;37474;59.468;18.040;2023-03-31T14:06:38;1.53;;;0.50;;
50379;SDS011;37474;59.468;18.040;2023-03-31T14:09:12;1.10;;;0.80;;
50379;SDS011;37474;59.468;18.040;2023-03-31T14:11:48;3.13;;;0.53;;
50379;SDS011;37474;59.468;18.040;2023-03-31T14:14:19;1.05;;;0.55;;
50379;SDS011;37474;59.468;18.040;2023-03-31T14:16:50;4.00;;;0.70;;
50379;SDS011;37474;59.468;18.040;2023-03-31T14:19:28;0.63;;;0.40;;
50379;SDS011;37474;59.468;18.040;2023-03-31T14:22:08;4.63;;;0.60;;
50379;SDS011;37474;59.468;18.040;2023-03-31T14:24:48;0.57;;;0.57;;
50379;SDS011;37474;59.468;18.040;2023-03-31T14:27:27;1.23;;;0.60;;
50379;SDS011;37474;59.468;18.040;2023-03-31T14:30:10;0.93;;;0.60;;
50379;SDS011;37474;59.468;18.040;2023-03-31T14:32:46;3.70;;;0.60;;
50379;SDS011;37474;59.468;18.040;2023-03-31T14:35:32;1.03;;;0.60;;
50379;SDS011;37474;59.468;18.040;2023-03-31T14:38:09;3.80;;;0.53;;
50379;SDS011;37474;59.468;18.040;2023-03-31T14:40:43;1.83;;;0.60;;
50379;SDS011;37474;59.468;18.040;2023-03-31T14:43:16;3.17;;;0.67;;
50379;SDS011;37474;59.468;18.040;2023-03-31T14:45:52;3.07;;;0.80;;
50379;SDS011;37474;59.468;18.040;2023-03-31T14:48:25;0.87;;;0.53;;
50379;SDS011;37474;59.468;18.040;2023-03-31T14:50:56;1.15;;;0.50;;
50379;SDS011;37474;59.468;18.040;2023-03-31T14:53:27;1.47;;;0.80;;
50379;SDS011;37474;59.468;18.040;2023-03-31T14:55:58;1.30;;;0.80;;
50379;SDS011;37474;59.468;18.040;2023-03-31T14:58:32;2.37;;;0.60;;
50379;SDS011;37474;59.468;18.040;2023-03-31T15:01:13;1.00;;;0.70;;
50379;SDS011;37474;59.468;18.040;2023-03-31T15:03:43;2.90;;;0.70;;
50379;SDS011;37474;59.468;18.040;2023-03-31T15:06:12;0.93;;;0.60;;
50379;SDS011;37474;59.468;18.040;2023-03-31T15:08:43;1.37;;;0.70;;
50379;SDS011;37474;59.468;18.040;2023-03-31T15:11:12;2.42;;;0.70;;
50379;SDS011;37474;59.468;18.040;2023-03-31T15:13:45;0.80;;;0.50;;
50379;SDS011;37474;59.468;18.040;2023-03-31T15:16:33;1.63;;;0.60;;
50379;SDS011;37474;59.468;18.040;2023-03-31T15:19:11;1.10;;;0.70;;
50379;SDS011;37474;59.468;18.040;2023-03-31T15:21:42;2.10;;;0.40;;
50379;SDS011;37474;59.468;18.040;2023-03-31T15:24:11;1.97;;;0.70;;
50379;SDS011;37474;59.468;18.040;2023-03-31T15:26:41;1.40;;;0.60;;
50379;SDS011;37474;59.468;18.040;2023-03-31T15:29:16;1.50;;;0.60;;
50379;SDS011;37474;59.468;18.040;2023-03-31T15:31:49;1.23;;;0.60;;
50379;SDS011;37474;59.468;18.040;2023-03-31T15:34:19;0.80;;;0.57;;
50379;SDS011;37474;59.468;18.040;2023-03-31T15:36:52;1.00;;;0.50;;
50379;SDS011;37474;59.468;18.040;2023-03-31T15:39:21;0.80;;;0.47;;
50379;SDS011;37474;59.468;18.040;2023-03-31T15:41:50;2.40;;;0.70;;
50379;SDS011;37474;59.468;18.040;2023-03-31T15:47:18;0.73;;;0.50;;
50379;SDS011;37474;59.468;18.040;2023-03-31T15:49:50;1.63;;;0.50;;